Santiago Del Estero, Santiago del Estero Airport (SANE)

NameSantiago del Estero Airport
CitySantiago Del Estero
CountryArgentina
ICAOSANE
IATASDE
Altitude200 m
CoordinatesGoogle Map
Live Air TrafficLiveATC.net
METARSANE 301149Z 34002KT 6000 NSC 02/01 Q1020
2019-07-30 11:49:00 Wind: North-Northwest (340°) 1.03 m/s - Visibility: 6000 m - Temperature: 2 °C - Dew point: 1 °C - Humidity: 93.2% - Pressure: 1020 hPa

Sorry, no flights used the airport in this database.